createdAt,value
2018-05-17T00:02:08.810Z,13.33
2018-05-17T00:04:37.334Z,13.73
2018-05-17T00:07:04.894Z,11.40
2018-05-17T00:09:32.428Z,21.60
2018-05-17T00:12:00.013Z,19.10
2018-05-17T00:14:27.583Z,17.40
2018-05-17T00:16:55.155Z,12.20
2018-05-17T00:19:22.729Z,22.23
2018-05-17T00:21:50.261Z,14.47
2018-05-17T00:24:17.828Z,18.43
2018-05-17T00:26:45.369Z,10.13
2018-05-17T00:29:13.880Z,12.03
2018-05-17T00:31:43.393Z,10.60
2018-05-17T00:34:11.684Z,10.47
2018-05-17T00:36:40.017Z,11.23
2018-05-17T00:39:07.545Z,13.10
2018-05-17T00:41:35.111Z,9.00
2018-05-17T00:44:02.650Z,8.93
2018-05-17T00:46:30.202Z,11.50
2018-05-17T00:48:59.701Z,10.37
2018-05-17T00:51:27.222Z,9.00
2018-05-17T00:53:54.779Z,10.20
2018-05-17T00:56:22.301Z,11.20
2018-05-17T00:58:49.856Z,13.77
2018-05-17T01:01:17.381Z,8.77
2018-05-17T01:03:44.937Z,11.27
2018-05-17T01:06:12.458Z,8.60
2018-05-17T01:08:40.076Z,8.83
2018-05-17T01:11:07.638Z,10.70
2018-05-17T01:13:35.173Z,13.00
2018-05-17T01:16:02.733Z,15.80
2018-05-17T01:18:31.017Z,8.37
2018-05-17T01:20:58.569Z,9.07
2018-05-17T01:23:26.090Z,8.10
2018-05-17T01:25:53.634Z,8.47
2018-05-17T01:28:21.186Z,9.73
2018-05-17T01:30:48.960Z,16.03
2018-05-17T01:33:16.504Z,14.43
2018-05-17T01:35:44.025Z,7.63
2018-05-17T01:38:25.473Z,7.60
2018-05-17T01:40:53.986Z,13.47
2018-05-17T01:43:21.545Z,11.20
2018-05-17T01:45:49.845Z,14.13
2018-05-17T01:48:18.147Z,9.63
2018-05-17T01:50:45.695Z,9.17
2018-05-17T01:53:14.172Z,10.03
2018-05-17T01:55:41.732Z,11.70
2018-05-17T01:58:09.276Z,11.83
2018-05-17T02:00:37.788Z,8.53
2018-05-17T02:03:05.363Z,11.00
2018-05-17T02:05:32.909Z,10.20
2018-05-17T02:08:02.401Z,10.20
2018-05-17T02:10:29.961Z,13.60
2018-05-17T02:12:59.444Z,9.40
2018-05-17T02:15:26.964Z,9.47
2018-05-17T02:17:54.522Z,12.10
2018-05-17T02:20:22.053Z,10.20
2018-05-17T02:22:49.605Z,16.10
2018-05-17T02:25:17.165Z,14.67
2018-05-17T02:27:44.700Z,12.00
2018-05-17T02:30:12.253Z,9.70
2018-05-17T02:32:40.586Z,10.13
2018-05-17T02:35:08.115Z,11.07
2018-05-17T02:37:35.675Z,10.30
2018-05-17T02:40:03.250Z,16.50
2018-05-17T02:42:30.773Z,11.90
2018-05-17T02:44:59.094Z,13.93
2018-05-17T02:47:26.626Z,15.60
2018-05-17T02:49:54.187Z,12.77
2018-05-17T02:52:21.717Z,19.53
2018-05-17T02:54:49.270Z,16.23
2018-05-17T02:57:16.805Z,18.37
2018-05-17T02:59:44.336Z,15.97
2018-05-17T03:02:11.909Z,19.57
2018-05-17T03:04:39.451Z,10.87
2018-05-17T03:07:07.011Z,13.43
2018-05-17T03:09:34.555Z,14.93
2018-05-17T03:12:02.106Z,9.60
2018-05-17T03:14:29.655Z,11.17
2018-05-17T03:16:57.189Z,13.97
2018-05-17T03:19:24.741Z,13.53
2018-05-17T03:21:52.270Z,9.93
2018-05-17T03:24:19.823Z,13.10
2018-05-17T03:26:47.351Z,12.53
2018-05-17T03:29:15.639Z,10.53
2018-05-17T03:31:43.189Z,9.70
2018-05-17T03:34:10.715Z,11.00
2018-05-17T03:36:38.275Z,9.57
2018-05-17T03:39:06.597Z,16.20
2018-05-17T03:41:34.121Z,11.53
2018-05-17T03:44:02.421Z,14.83
2018-05-17T03:46:30.075Z,9.73
2018-05-17T03:48:57.537Z,14.67
2018-05-17T03:51:25.093Z,13.90
2018-05-17T03:53:53.386Z,14.77
2018-05-17T03:56:20.909Z,12.27
2018-05-17T03:58:51.194Z,10.20
2018-05-17T04:01:30.481Z,10.80
2018-05-17T04:04:12.747Z,11.87
2018-05-17T04:06:41.101Z,10.97
2018-05-17T04:09:08.761Z,13.10
2018-05-17T04:11:36.324Z,15.17
2018-05-17T04:14:03.946Z,20.43
2018-05-17T04:16:32.281Z,13.67
2018-05-17T04:18:59.852Z,18.43
2018-05-17T04:21:28.149Z,16.57
2018-05-17T04:23:55.719Z,20.63
2018-05-17T04:26:23.261Z,18.50
2018-05-17T04:28:52.548Z,19.33
2018-05-17T04:31:20.105Z,14.80
2018-05-17T04:33:47.684Z,21.30
2018-05-17T04:36:15.231Z,17.23
2018-05-17T04:38:42.766Z,17.97
2018-05-17T04:41:10.325Z,16.63
2018-05-17T04:43:37.855Z,19.20
2018-05-17T04:46:05.408Z,16.43
2018-05-17T04:48:32.936Z,17.70
2018-05-17T04:51:01.278Z,14.03
2018-05-17T04:53:30.789Z,14.97
2018-05-17T04:55:58.323Z,18.00
2018-05-17T04:58:25.879Z,11.47
2018-05-17T05:00:54.216Z,12.30
2018-05-17T05:03:24.461Z,13.30
2018-05-17T05:05:51.993Z,12.37
2018-05-17T05:08:21.490Z,14.70
2018-05-17T05:10:49.962Z,10.77
2018-05-17T05:13:17.513Z,12.00
2018-05-17T05:15:45.041Z,12.50
2018-05-17T05:18:12.573Z,10.63
2018-05-17T05:20:40.910Z,8.77
2018-05-17T05:23:09.385Z,10.17
2018-05-17T05:25:36.948Z,14.33
2018-05-17T05:28:04.476Z,9.27
2018-05-17T05:30:32.025Z,7.87
2018-05-17T05:32:59.545Z,10.10
2018-05-17T05:35:27.065Z,8.33
2018-05-17T05:37:54.618Z,14.20
2018-05-17T05:40:23.080Z,9.43
2018-05-17T05:42:50.639Z,9.27
2018-05-17T05:45:18.190Z,11.73
2018-05-17T05:47:45.717Z,10.73
2018-05-17T05:50:16.006Z,12.50
2018-05-17T05:52:43.573Z,14.83
2018-05-17T05:55:11.122Z,18.87
2018-05-17T05:57:38.656Z,14.17
2018-05-17T06:00:06.219Z,17.80
2018-05-17T06:02:33.745Z,22.33
2018-05-17T06:05:01.313Z,23.33
2018-05-17T06:07:29.617Z,16.23
2018-05-17T06:09:59.105Z,22.00
2018-05-17T06:12:26.634Z,19.70
2018-05-17T06:14:54.160Z,17.43
2018-05-17T06:17:23.665Z,18.47
2018-05-17T06:19:52.162Z,19.70
2018-05-17T06:22:19.719Z,24.60
2018-05-17T06:24:47.549Z,24.80
2018-05-17T06:27:15.112Z,28.53
2018-05-17T06:29:43.749Z,31.47
2018-05-17T06:32:11.337Z,33.93
2018-05-17T06:34:38.882Z,73.37
2018-05-17T06:37:07.010Z,43.27
2018-05-17T06:39:34.613Z,35.40
2018-05-17T06:42:03.312Z,44.17
2018-05-17T06:44:30.875Z,43.33
2018-05-17T06:46:58.426Z,35.20
2018-05-17T06:49:25.973Z,41.50
2018-05-17T06:51:54.336Z,35.87
2018-05-17T06:54:21.923Z,49.13
2018-05-17T06:56:49.478Z,37.50
2018-05-17T06:59:17.783Z,38.47
2018-05-17T07:01:45.359Z,36.60
2018-05-17T07:04:12.905Z,37.73
2018-05-17T07:06:42.426Z,48.17
2018-05-17T07:09:09.966Z,40.83
2018-05-17T07:11:37.564Z,43.70
2018-05-17T07:14:06.076Z,38.30
2018-05-17T07:16:33.635Z,35.70
2018-05-17T07:19:01.986Z,41.60
2018-05-17T07:21:30.125Z,42.03
2018-05-17T07:23:57.713Z,40.00
2018-05-17T07:26:25.237Z,44.80
2018-05-17T07:28:52.772Z,45.57
2018-05-17T07:31:20.402Z,48.00
2018-05-17T07:33:48.717Z,45.33
2018-05-17T07:36:16.297Z,35.70
2018-05-17T07:38:43.844Z,37.30
2018-05-17T07:41:11.425Z,44.17
2018-05-17T07:43:38.994Z,38.93
2018-05-17T07:46:06.528Z,36.53
2018-05-17T07:48:35.182Z,43.00
2018-05-17T07:51:03.553Z,44.70
2018-05-17T07:53:31.149Z,38.93
2018-05-17T07:55:58.704Z,39.95
2018-05-17T07:58:26.298Z,45.33
2018-05-17T08:00:53.864Z,37.20
2018-05-17T08:03:21.441Z,37.97
2018-05-17T08:05:49.010Z,35.73
2018-05-17T08:08:17.347Z,35.50
2018-05-17T08:10:44.893Z,34.13
2018-05-17T08:13:12.476Z,32.20
2018-05-17T08:15:40.051Z,36.10
2018-05-17T08:18:07.658Z,33.50
2018-05-17T08:20:35.223Z,32.97
2018-05-17T08:23:02.777Z,34.03
2018-05-17T08:25:30.324Z,33.77
2018-05-17T08:27:57.869Z,30.00
2018-05-17T08:30:28.145Z,27.27
2018-05-17T08:32:55.684Z,35.60
2018-05-17T08:35:24.261Z,30.83
2018-05-17T08:37:51.800Z,28.50
2018-05-17T08:40:19.370Z,24.27
2018-05-17T08:42:46.954Z,24.00
2018-05-17T08:45:14.502Z,25.23
2018-05-17T08:47:42.056Z,23.77
2018-05-17T08:50:09.718Z,23.60
2018-05-17T08:52:37.342Z,24.77
2018-05-17T08:55:04.884Z,20.63
2018-05-17T08:57:32.437Z,19.57
2018-05-17T09:00:00.017Z,19.40
2018-05-17T09:02:27.595Z,18.73
2018-05-17T09:04:55.161Z,21.43
2018-05-17T09:07:22.709Z,22.27
2018-05-17T09:09:50.269Z,18.37
2018-05-17T09:12:18.569Z,16.63
2018-05-17T09:14:46.129Z,15.80
2018-05-17T09:17:15.620Z,18.23
2018-05-17T09:19:43.190Z,17.63
2018-05-17T09:22:10.753Z,16.33
2018-05-17T09:24:38.320Z,15.67
2018-05-17T09:27:06.814Z,19.27
2018-05-17T09:29:34.370Z,16.70
2018-05-17T09:32:01.933Z,18.60
2018-05-17T09:34:29.494Z,19.67
2018-05-17T09:37:03.180Z,21.70
2018-05-17T09:39:35.859Z,16.43
2018-05-17T09:42:05.348Z,13.87
2018-05-17T09:44:32.897Z,16.83
2018-05-17T09:47:00.785Z,15.03
2018-05-17T09:49:28.324Z,16.00
2018-05-17T09:51:56.875Z,24.43
2018-05-17T09:54:26.025Z,18.20
2018-05-17T09:56:53.567Z,20.03
2018-05-17T09:59:21.132Z,18.47
2018-05-17T10:01:48.702Z,19.20
2018-05-17T10:04:16.269Z,21.63
2018-05-17T10:06:43.820Z,22.03
2018-05-17T10:09:11.405Z,22.00
2018-05-17T10:11:38.937Z,19.03
2018-05-17T10:14:06.498Z,19.67
2018-05-17T10:16:34.088Z,18.90
2018-05-17T10:19:01.680Z,18.57
2018-05-17T10:21:29.222Z,26.67
2018-05-17T10:23:56.805Z,25.13
2018-05-17T10:26:24.368Z,22.15
2018-05-17T10:28:51.938Z,25.90
2018-05-17T10:31:20.428Z,17.30
2018-05-17T10:33:47.989Z,20.73
2018-05-17T10:36:16.331Z,20.10
2018-05-17T10:38:43.859Z,16.27
2018-05-17T10:41:11.436Z,19.70
2018-05-17T10:43:39.001Z,17.97
2018-05-17T10:46:07.561Z,20.37
2018-05-17T10:48:35.104Z,18.80
2018-05-17T10:51:02.713Z,19.10
2018-05-17T10:53:31.005Z,17.60
2018-05-17T10:55:58.546Z,20.27
2018-05-17T10:58:28.069Z,14.23
2018-05-17T11:00:56.565Z,17.70
2018-05-17T11:03:24.121Z,15.93
2018-05-17T11:05:51.649Z,16.00
2018-05-17T11:08:21.921Z,16.83
2018-05-17T11:10:49.449Z,14.97
2018-05-17T11:13:17.013Z,18.60
2018-05-17T11:15:44.580Z,13.70
2018-05-17T11:18:14.095Z,16.73
2018-05-17T11:20:41.622Z,13.50
2018-05-17T11:23:10.926Z,14.47
2018-05-17T11:25:38.465Z,13.23
2018-05-17T11:28:06.793Z,20.60
2018-05-17T11:30:34.399Z,16.10
2018-05-17T11:33:02.009Z,12.87
2018-05-17T11:35:29.543Z,15.67
2018-05-17T11:37:57.085Z,16.83
2018-05-17T11:40:26.471Z,15.40
2018-05-17T11:42:54.775Z,14.80
2018-05-17T11:45:22.340Z,13.97
2018-05-17T11:47:49.869Z,12.50
2018-05-17T11:50:17.427Z,12.93
2018-05-17T11:52:45.753Z,10.80
2018-05-17T11:55:13.278Z,11.23
2018-05-17T11:57:42.773Z,11.80
2018-05-17T12:00:10.311Z,10.73
2018-05-17T12:02:37.898Z,16.20
2018-05-17T12:05:05.963Z,13.13
2018-05-17T12:07:33.497Z,15.10
2018-05-17T12:10:01.871Z,15.10
2018-05-17T12:12:29.401Z,11.50
2018-05-17T12:14:56.951Z,17.80
2018-05-17T12:17:24.476Z,9.87
2018-05-17T12:19:52.793Z,10.33
2018-05-17T12:22:20.313Z,14.60
2018-05-17T12:24:47.865Z,12.70
2018-05-17T12:27:15.421Z,13.73
2018-05-17T12:29:42.944Z,10.67
2018-05-17T12:32:10.511Z,15.50
2018-05-17T12:34:38.055Z,12.63
2018-05-17T12:37:05.621Z,13.50
2018-05-17T12:39:35.133Z,12.43
2018-05-17T12:42:02.693Z,10.50
2018-05-17T12:44:30.289Z,13.70
2018-05-17T12:47:00.436Z,14.13
2018-05-17T12:49:27.991Z,13.83
2018-05-17T12:51:55.537Z,11.03
2018-05-17T12:54:23.120Z,14.57
2018-05-17T12:56:50.839Z,16.70
2018-05-17T12:59:19.106Z,16.93
2018-05-17T13:01:46.654Z,16.50
2018-05-17T13:04:14.240Z,16.47
2018-05-17T13:06:42.547Z,19.20
2018-05-17T13:09:10.125Z,19.30
2018-05-17T13:11:37.674Z,20.37
2018-05-17T13:14:05.229Z,18.47
2018-05-17T13:16:32.841Z,18.10
2018-05-17T13:19:01.160Z,21.90
2018-05-17T13:21:28.713Z,19.03
2018-05-17T13:23:57.011Z,20.10
2018-05-17T13:26:24.579Z,17.27
2018-05-17T13:28:52.131Z,22.83
2018-05-17T13:31:19.693Z,18.57
2018-05-17T13:33:47.268Z,18.27
2018-05-17T13:36:14.797Z,20.47
2018-05-17T13:38:43.703Z,29.23
2018-05-17T13:41:11.237Z,35.37
2018-05-17T13:43:38.799Z,30.40
2018-05-17T13:46:06.358Z,24.10
2018-05-17T13:48:33.952Z,37.53
2018-05-17T13:51:01.496Z,36.60
2018-05-17T13:53:29.058Z,47.77
2018-05-17T13:55:56.605Z,39.50
2018-05-17T13:58:24.167Z,44.23
2018-05-17T14:00:51.723Z,38.93
2018-05-17T14:03:19.281Z,42.30
2018-05-17T14:05:46.959Z,43.30
2018-05-17T14:08:14.485Z,33.90
2018-05-17T14:10:42.050Z,34.03
2018-05-17T14:13:09.578Z,39.97
2018-05-17T14:15:37.149Z,33.20
2018-05-17T14:18:05.460Z,44.33
2018-05-17T14:20:33.019Z,36.03
2018-05-17T14:23:00.551Z,37.03
2018-05-17T14:25:28.101Z,35.20
2018-05-17T14:27:56.428Z,40.53
2018-05-17T14:30:23.969Z,39.87
2018-05-17T14:32:51.561Z,34.53
2018-05-17T14:35:19.101Z,31.57
2018-05-17T14:37:46.658Z,33.33
2018-05-17T14:40:14.193Z,46.30
2018-05-17T14:42:42.521Z,38.73
2018-05-17T14:45:10.081Z,29.43
2018-05-17T14:47:37.624Z,33.77
2018-05-17T14:50:07.149Z,35.83
2018-05-17T14:52:34.859Z,31.13
2018-05-17T14:55:02.420Z,28.23
2018-05-17T14:57:29.973Z,31.57
2018-05-17T14:59:58.302Z,22.17
2018-05-17T15:02:25.900Z,23.40
2018-05-17T15:04:54.232Z,23.60
2018-05-17T15:07:21.768Z,22.50
2018-05-17T15:09:50.283Z,24.43
2018-05-17T15:12:18.390Z,24.00
2018-05-17T15:14:45.893Z,20.93
2018-05-17T15:17:15.353Z,26.37
2018-05-17T15:19:42.979Z,21.60
2018-05-17T15:22:11.499Z,31.67
2018-05-17T15:24:39.885Z,25.40
2018-05-17T15:27:07.403Z,28.57
2018-05-17T15:29:34.997Z,29.60
2018-05-17T15:32:02.513Z,32.50
2018-05-17T15:34:32.032Z,25.03
2018-05-17T15:36:59.580Z,28.23
2018-05-17T15:39:27.168Z,30.47
2018-05-17T15:41:55.464Z,25.93
2018-05-17T15:44:23.025Z,28.17
2018-05-17T15:46:51.612Z,27.20
2018-05-17T15:49:21.126Z,25.53
2018-05-17T15:51:48.665Z,28.57
2018-05-17T15:54:18.223Z,28.30
2018-05-17T15:56:45.765Z,27.90
2018-05-17T15:59:13.330Z,26.00
2018-05-17T16:01:40.875Z,30.77
2018-05-17T16:04:09.371Z,30.23
2018-05-17T16:06:36.953Z,24.23
2018-05-17T16:09:06.145Z,33.63
2018-05-17T16:11:35.655Z,27.93
2018-05-17T16:14:03.194Z,24.67
2018-05-17T16:16:30.757Z,24.60
2018-05-17T16:18:58.286Z,25.70
2018-05-17T16:21:26.867Z,26.13
2018-05-17T16:23:54.431Z,32.20
2018-05-17T16:26:21.982Z,29.37
2018-05-17T16:28:49.567Z,28.97
2018-05-17T16:31:17.113Z,22.63
2018-05-17T16:33:47.321Z,28.70
2018-05-17T16:36:14.879Z,28.20
2018-05-17T16:38:42.433Z,29.37
2018-05-17T16:43:43.771Z,30.07
2018-05-17T16:46:11.502Z,33.27
2018-05-17T16:48:39.060Z,30.00
2018-05-17T16:51:06.615Z,31.20
2018-05-17T16:53:35.114Z,34.50
2018-05-17T16:56:04.177Z,33.03
2018-05-17T16:58:34.444Z,35.23
2018-05-17T17:01:03.300Z,36.10
2018-05-17T17:03:33.388Z,34.27
2018-05-17T17:06:02.191Z,32.70
2018-05-17T17:08:30.892Z,33.30
2018-05-17T17:10:59.079Z,25.00
2018-05-17T17:13:26.676Z,32.30
2018-05-17T17:15:54.237Z,36.70
2018-05-17T17:18:21.817Z,30.20
2018-05-17T17:20:49.345Z,39.37
2018-05-17T17:23:16.898Z,36.57
2018-05-17T17:25:44.431Z,28.90
2018-05-17T17:28:12.012Z,33.00
2018-05-17T17:30:40.310Z,27.43
2018-05-17T17:33:07.856Z,34.67
2018-05-17T17:35:35.447Z,33.90
2018-05-17T17:38:03.010Z,30.23
2018-05-17T17:40:37.954Z,27.47
2018-05-17T17:43:07.078Z,36.63
2018-05-17T17:45:35.332Z,31.33
2018-05-17T17:48:03.004Z,32.57
2018-05-17T17:50:30.571Z,35.47
2018-05-17T17:52:58.155Z,31.77
2018-05-17T17:55:25.888Z,32.80
2018-05-17T17:57:53.481Z,27.53
2018-05-17T18:00:21.032Z,32.00
2018-05-17T18:02:48.620Z,33.63
2018-05-17T18:05:16.987Z,30.13
2018-05-17T18:07:45.317Z,28.83
2018-05-17T18:10:13.602Z,30.90
2018-05-17T18:12:41.186Z,38.80
2018-05-17T18:15:08.756Z,38.80
2018-05-17T18:17:36.320Z,34.33
2018-05-17T18:20:04.661Z,34.80
2018-05-17T18:22:32.203Z,31.63
2018-05-17T18:24:59.830Z,33.60
2018-05-17T18:27:27.450Z,31.30
2018-05-17T18:29:55.031Z,25.70
2018-05-17T18:32:22.611Z,33.40
2018-05-17T18:34:50.909Z,26.77
2018-05-17T18:37:18.473Z,28.90
2018-05-17T18:39:46.040Z,28.00
2018-05-17T18:42:13.646Z,40.87
2018-05-17T18:44:41.213Z,34.17
2018-05-17T18:47:09.525Z,37.93
2018-05-17T18:49:37.492Z,30.80
2018-05-17T18:52:05.050Z,38.90
2018-05-17T18:54:32.689Z,28.63
2018-05-17T18:57:00.292Z,34.03
2018-05-17T18:59:28.553Z,29.93
2018-05-17T19:01:57.202Z,36.90
2018-05-17T19:04:24.721Z,25.23
2018-05-17T19:06:52.300Z,39.00
2018-05-17T19:09:19.864Z,30.17
2018-05-17T19:11:47.430Z,29.37
2018-05-17T19:14:15.803Z,29.53
2018-05-17T19:16:43.363Z,29.23
2018-05-17T19:19:11.746Z,40.00
2018-05-17T19:21:40.101Z,34.67
2018-05-17T19:24:07.666Z,30.23
2018-05-17T19:26:35.418Z,30.67
2018-05-17T19:29:02.957Z,35.10
2018-05-17T19:31:30.607Z,42.33
2018-05-17T19:34:00.126Z,32.70
2018-05-17T19:36:28.397Z,32.57
2018-05-17T19:38:55.979Z,33.60
2018-05-17T19:41:23.527Z,31.43
2018-05-17T19:43:51.091Z,37.07
2018-05-17T19:46:18.673Z,30.30
2018-05-17T19:48:46.293Z,30.23
2018-05-17T19:51:13.825Z,36.67
2018-05-17T19:53:41.368Z,35.50
2018-05-17T19:56:08.955Z,38.17
2018-05-17T19:58:36.489Z,37.10
2018-05-17T20:01:04.118Z,31.30
2018-05-17T20:03:31.703Z,30.50
2018-05-17T20:05:59.238Z,32.07
2018-05-17T20:08:27.762Z,36.50
2018-05-17T20:10:56.113Z,32.67
2018-05-17T20:13:24.428Z,38.13
2018-05-17T20:15:52.117Z,33.00
2018-05-17T20:18:19.679Z,32.53
2018-05-17T20:20:47.752Z,33.10
2018-05-17T20:23:15.496Z,43.43
2018-05-17T20:25:43.994Z,34.13
2018-05-17T20:28:13.238Z,32.40
2018-05-17T20:30:41.042Z,39.93
2018-05-17T20:33:08.593Z,30.40
2018-05-17T20:35:36.185Z,28.80
2018-05-17T20:38:06.497Z,28.00
2018-05-17T20:40:36.039Z,29.57
2018-05-17T20:43:03.580Z,37.90
2018-05-17T20:45:31.171Z,31.50
2018-05-17T20:47:59.474Z,28.93
2018-05-17T20:50:27.041Z,26.70
2018-05-17T20:52:54.620Z,33.10
2018-05-17T20:55:23.103Z,28.90
2018-05-17T20:57:50.663Z,34.30
2018-05-17T21:00:18.189Z,28.93
2018-05-17T21:02:45.749Z,33.30
2018-05-17T21:05:14.264Z,31.87
2018-05-17T21:07:41.834Z,25.97
2018-05-17T21:10:10.348Z,35.37
2018-05-17T21:12:37.921Z,32.37
2018-05-17T21:15:07.195Z,23.73
2018-05-17T21:17:34.758Z,30.93
2018-05-17T21:20:02.312Z,29.27
2018-05-17T21:22:30.615Z,29.87
2018-05-17T21:24:58.188Z,25.27
2018-05-17T21:27:26.766Z,29.57
2018-05-17T21:29:54.355Z,27.30
2018-05-17T21:32:22.135Z,29.52
2018-05-17T21:34:49.681Z,34.30
2018-05-17T21:37:17.245Z,30.73
2018-05-17T21:39:44.800Z,30.80
2018-05-17T21:42:12.540Z,30.43
2018-05-17T21:44:40.085Z,35.07
2018-05-17T21:47:07.680Z,29.87
2018-05-17T21:49:36.351Z,33.67
2018-05-17T21:52:03.961Z,28.87
2018-05-17T21:54:31.518Z,30.67
2018-05-17T21:56:59.084Z,32.00
2018-05-17T21:59:27.512Z,24.20
2018-05-17T22:01:55.071Z,27.23
2018-05-17T22:04:22.625Z,27.17
2018-05-17T22:06:50.159Z,26.57
2018-05-17T22:09:17.849Z,39.77
2018-05-17T22:11:45.712Z,30.43
2018-05-17T22:14:13.467Z,25.03
2018-05-17T22:16:41.065Z,29.63
2018-05-17T22:19:08.636Z,30.23
2018-05-17T22:21:36.933Z,27.80
2018-05-17T22:24:04.466Z,29.50
2018-05-17T22:26:33.965Z,23.60
2018-05-17T22:29:01.505Z,26.63
2018-05-17T22:31:29.265Z,26.83
2018-05-17T22:33:56.833Z,28.80
2018-05-17T22:36:24.382Z,32.73
2018-05-17T22:38:51.929Z,30.13
2018-05-17T22:41:19.502Z,25.80
2018-05-17T22:43:47.048Z,29.07
2018-05-17T22:46:14.625Z,30.73
2018-05-17T22:48:42.164Z,44.13
2018-05-17T22:51:09.715Z,33.10
2018-05-17T22:53:38.255Z,38.43
2018-05-17T22:56:06.581Z,28.63
2018-05-17T22:58:34.140Z,34.67
2018-05-17T23:01:01.675Z,31.07
2018-05-17T23:03:30.010Z,32.10
2018-05-17T23:05:57.557Z,30.30
2018-05-17T23:08:25.092Z,31.03
2018-05-17T23:10:52.669Z,37.57
2018-05-17T23:13:21.180Z,30.93
2018-05-17T23:15:48.766Z,39.43
2018-05-17T23:18:18.041Z,31.67
2018-05-17T23:20:46.211Z,28.47
2018-05-17T23:23:14.086Z,25.57
2018-05-17T23:25:41.645Z,32.30
2018-05-17T23:28:09.954Z,29.90
2018-05-17T23:30:37.533Z,32.47
2018-05-17T23:33:05.117Z,38.80
2018-05-17T23:35:32.650Z,31.03
2018-05-17T23:38:00.184Z,31.60
2018-05-17T23:43:33.949Z,37.00
2018-05-17T23:46:01.509Z,33.50
2018-05-17T23:48:29.073Z,39.70
2018-05-17T23:50:56.607Z,30.07
2018-05-17T23:53:24.169Z,44.07
2018-05-17T23:55:51.697Z,31.57
2018-05-17T23:58:20.027Z,29.77
